createdAt,value
2022-12-18T00:00:48.021Z,37.97
2022-12-18T00:01:48.099Z,37.78
2022-12-18T00:02:48.208Z,38.07
2022-12-18T00:03:48.214Z,37.88
2022-12-18T00:04:48.030Z,37.02
2022-12-18T00:05:48.032Z,36.65
2022-12-18T00:06:48.035Z,36.83
2022-12-18T00:07:48.032Z,35.89
2022-12-18T00:08:48.040Z,36.08
2022-12-18T00:09:48.038Z,36.93
2022-12-18T00:10:48.069Z,37.59
2022-12-18T00:11:48.043Z,37.88
2022-12-18T00:12:48.050Z,38.92
2022-12-18T00:13:48.050Z,39.48
2022-12-18T00:14:48.053Z,40.24
2022-12-18T00:15:48.084Z,40.90
2022-12-18T00:16:48.059Z,41.56
2022-12-18T00:17:48.083Z,41.28
2022-12-18T00:18:48.063Z,41.66
2022-12-18T00:19:48.070Z,40.90
2022-12-18T00:20:48.071Z,40.14
2022-12-18T00:21:48.075Z,39.01
2022-12-18T00:22:48.075Z,38.16
2022-12-18T00:23:48.079Z,37.50
2022-12-18T00:24:48.080Z,37.50
2022-12-18T00:25:48.087Z,37.02
2022-12-18T00:26:48.092Z,37.02
2022-12-18T00:27:48.091Z,36.36
2022-12-18T00:28:48.092Z,36.27
2022-12-18T00:29:48.204Z,36.74
2022-12-18T00:30:48.097Z,36.65
2022-12-18T00:31:48.167Z,36.74
2022-12-18T00:32:48.102Z,36.74
2022-12-18T00:33:48.143Z,37.40
2022-12-18T00:34:48.110Z,37.78
2022-12-18T00:35:48.114Z,38.82
2022-12-18T00:36:48.114Z,38.82
2022-12-18T00:37:48.121Z,39.01
2022-12-18T00:38:48.121Z,38.82
2022-12-18T00:39:48.128Z,37.78
2022-12-18T00:40:48.124Z,37.88
2022-12-18T00:41:48.134Z,36.83
2022-12-18T00:42:48.133Z,35.14
2022-12-18T00:43:48.139Z,35.33
2022-12-18T00:44:48.141Z,35.71
2022-12-18T00:45:48.191Z,35.80
2022-12-18T00:46:48.144Z,36.08
2022-12-18T00:47:48.150Z,36.74
2022-12-18T00:48:48.156Z,36.46
2022-12-18T00:49:48.175Z,36.65
2022-12-18T00:50:48.154Z,36.36
2022-12-18T00:51:48.160Z,35.99
2022-12-18T00:52:48.159Z,35.80
2022-12-18T00:53:48.169Z,36.08
2022-12-18T00:54:48.167Z,35.99
2022-12-18T00:55:48.174Z,35.99
2022-12-18T00:56:49.671Z,35.91
2022-12-18T00:57:48.179Z,35.72
2022-12-18T00:58:48.178Z,35.53
2022-12-18T00:59:48.184Z,35.72
2022-12-18T01:00:48.202Z,36.10
2022-12-18T01:01:48.379Z,36.10
2022-12-18T01:02:48.398Z,36.10
2022-12-18T01:03:48.201Z,35.91
2022-12-18T01:04:48.205Z,36.00
2022-12-18T01:05:48.228Z,35.91
2022-12-18T01:06:48.204Z,35.72
2022-12-18T01:07:48.211Z,34.97
2022-12-18T01:08:48.206Z,35.35
2022-12-18T01:09:48.216Z,35.06
2022-12-18T01:10:48.212Z,34.40
2022-12-18T01:11:48.229Z,34.87
2022-12-18T01:12:48.220Z,34.87
2022-12-18T01:13:48.232Z,34.87
2022-12-18T01:14:48.231Z,34.78
2022-12-18T01:15:48.230Z,34.78
2022-12-18T01:16:48.290Z,34.68
2022-12-18T01:17:48.236Z,34.59
2022-12-18T01:18:48.239Z,34.40
2022-12-18T01:19:48.241Z,33.92
2022-12-18T01:20:48.244Z,33.83
2022-12-18T01:21:48.266Z,33.54
2022-12-18T01:22:48.348Z,33.45
2022-12-18T01:23:48.254Z,33.45
2022-12-18T01:24:48.252Z,33.73
2022-12-18T01:25:48.258Z,33.64
2022-12-18T01:26:48.261Z,33.83
2022-12-18T01:27:48.266Z,34.11
2022-12-18T01:28:48.275Z,33.83
2022-12-18T01:29:48.272Z,33.54
2022-12-18T01:30:48.269Z,33.83
2022-12-18T01:31:48.328Z,34.49
2022-12-18T01:32:48.277Z,34.78
2022-12-18T01:33:48.281Z,34.59
2022-12-18T01:34:48.283Z,34.87
2022-12-18T01:35:48.287Z,34.95
2022-12-18T01:36:48.290Z,35.04
2022-12-18T01:37:48.297Z,35.44
2022-12-18T01:38:48.351Z,35.71
2022-12-18T01:39:48.301Z,35.63
2022-12-18T01:40:48.302Z,35.80
2022-12-18T01:41:48.309Z,36.27
2022-12-18T01:42:48.306Z,36.08
2022-12-18T01:43:48.316Z,34.85
2022-12-18T01:44:48.313Z,35.61
2022-12-18T01:45:48.364Z,36.36
2022-12-18T01:46:48.319Z,37.12
2022-12-18T01:47:48.322Z,37.40
2022-12-18T01:48:48.324Z,37.12
2022-12-18T01:49:48.333Z,37.59
2022-12-18T01:50:48.333Z,37.97
2022-12-18T01:51:48.338Z,38.26
2022-12-18T01:52:48.338Z,38.35
2022-12-18T01:53:48.345Z,38.73
2022-12-18T01:54:48.351Z,39.20
2022-12-18T01:55:48.369Z,39.29
2022-12-18T01:56:48.350Z,39.29
2022-12-18T01:57:48.356Z,39.01
2022-12-18T01:58:48.355Z,39.29
2022-12-18T01:59:48.367Z,40.05
2022-12-18T02:00:48.466Z,40.61
2022-12-18T02:01:48.505Z,41.94
2022-12-18T02:02:48.532Z,42.32
2022-12-18T02:03:48.373Z,41.85
2022-12-18T02:04:49.676Z,41.85
2022-12-18T02:05:48.390Z,41.94
2022-12-18T02:06:48.382Z,42.03
2022-12-18T02:07:48.387Z,42.03
2022-12-18T02:08:48.392Z,42.03
2022-12-18T02:09:48.392Z,42.22
2022-12-18T02:10:48.395Z,42.32
2022-12-18T02:11:48.409Z,42.41
2022-12-18T02:12:48.521Z,41.75
2022-12-18T02:13:48.406Z,41.56
2022-12-18T02:14:48.406Z,40.80
2022-12-18T02:15:48.414Z,40.80
2022-12-18T02:16:48.528Z,41.18
2022-12-18T02:17:48.417Z,41.18
2022-12-18T02:18:48.416Z,40.33
2022-12-18T02:19:48.424Z,38.28
2022-12-18T02:20:48.423Z,37.97
2022-12-18T02:21:48.429Z,38.07
2022-12-18T02:22:48.428Z,39.67
2022-12-18T02:23:48.434Z,40.14
2022-12-18T02:24:48.436Z,40.14
2022-12-18T02:25:48.438Z,40.14
2022-12-18T02:26:48.440Z,40.61
2022-12-18T02:27:48.445Z,41.28
2022-12-18T02:28:48.557Z,41.28
2022-12-18T02:29:52.905Z,40.05
2022-12-18T02:30:48.524Z,39.20
2022-12-18T02:31:48.557Z,39.01
2022-12-18T02:32:48.457Z,39.67
2022-12-18T02:33:48.464Z,40.80
2022-12-18T02:34:48.463Z,41.37
2022-12-18T02:35:48.470Z,41.66
2022-12-18T02:36:48.478Z,41.85
2022-12-18T02:37:48.475Z,42.41
2022-12-18T02:38:48.476Z,41.94
2022-12-18T02:39:48.480Z,41.85
2022-12-18T02:40:48.479Z,41.56
2022-12-18T02:41:48.489Z,40.24
2022-12-18T02:42:48.486Z,40.14
2022-12-18T02:43:48.494Z,40.61
2022-12-18T02:44:48.609Z,41.56
2022-12-18T02:45:48.545Z,41.66
2022-12-18T02:46:48.498Z,41.85
2022-12-18T02:47:48.504Z,41.66
2022-12-18T02:48:48.505Z,41.37
2022-12-18T02:49:48.510Z,41.18
2022-12-18T02:50:48.510Z,40.61
2022-12-18T02:51:48.516Z,39.95
2022-12-18T02:52:48.517Z,39.58
2022-12-18T02:53:48.524Z,39.01
2022-12-18T02:54:48.523Z,39.86
2022-12-18T02:55:48.573Z,39.76
2022-12-18T02:56:48.536Z,40.42
2022-12-18T02:57:48.537Z,40.33
2022-12-18T02:58:48.535Z,40.33
2022-12-18T02:59:48.540Z,40.99
2022-12-18T03:00:48.657Z,41.28
2022-12-18T03:01:48.632Z,41.09
2022-12-18T03:02:48.682Z,41.56
2022-12-18T03:03:48.558Z,41.94
2022-12-18T03:04:48.556Z,41.37
2022-12-18T03:05:48.557Z,41.47
2022-12-18T03:06:48.559Z,41.56
2022-12-18T03:07:48.561Z,41.56
2022-12-18T03:08:48.562Z,41.75
2022-12-18T03:09:48.570Z,41.75
2022-12-18T03:10:48.579Z,41.75
2022-12-18T03:11:48.582Z,41.56
2022-12-18T03:12:48.574Z,41.09
2022-12-18T03:13:48.583Z,40.90
2022-12-18T03:14:48.583Z,40.90
2022-12-18T03:15:48.592Z,40.90
2022-12-18T03:16:48.732Z,40.42
2022-12-18T03:17:48.593Z,40.71
2022-12-18T03:18:48.603Z,40.42
2022-12-18T03:19:48.605Z,40.99
2022-12-18T03:20:48.602Z,40.33
2022-12-18T03:21:48.605Z,40.52
2022-12-18T03:22:48.602Z,40.33
2022-12-18T03:23:48.617Z,40.42
2022-12-18T03:24:48.607Z,40.05
2022-12-18T03:25:48.625Z,39.76
2022-12-18T03:26:48.614Z,39.86
2022-12-18T03:27:48.620Z,39.95
2022-12-18T03:28:48.619Z,40.05
2022-12-18T03:29:48.626Z,39.95
2022-12-18T03:30:48.660Z,40.33
2022-12-18T03:31:48.640Z,40.24
2022-12-18T03:32:48.752Z,40.42
2022-12-18T03:33:48.638Z,40.33
2022-12-18T03:34:48.636Z,39.76
2022-12-18T03:35:48.643Z,39.39
2022-12-18T03:36:48.650Z,39.67
2022-12-18T03:37:48.647Z,40.33
2022-12-18T03:38:48.648Z,40.14
2022-12-18T03:39:48.654Z,39.86
2022-12-18T03:40:48.656Z,39.39
2022-12-18T03:41:48.661Z,39.48
2022-12-18T03:42:48.658Z,39.95
2022-12-18T03:43:48.666Z,39.86
2022-12-18T03:44:48.680Z,40.05
2022-12-18T03:45:48.758Z,40.24
2022-12-18T03:46:48.674Z,40.14
2022-12-18T03:47:48.675Z,40.14
2022-12-18T03:48:54.668Z,40.33
2022-12-18T03:49:48.802Z,40.52
2022-12-18T03:50:48.701Z,40.52
2022-12-18T03:51:48.690Z,40.24
2022-12-18T03:52:48.687Z,39.11
2022-12-18T03:53:48.694Z,38.82
2022-12-18T03:54:48.694Z,37.69
2022-12-18T03:55:48.700Z,38.07
2022-12-18T03:56:48.701Z,37.78
2022-12-18T03:57:48.707Z,37.78
2022-12-18T03:58:48.707Z,37.69
2022-12-18T03:59:48.712Z,37.69
2022-12-18T04:00:48.714Z,37.59
2022-12-18T04:01:48.897Z,36.93
2022-12-18T04:02:48.837Z,36.46
2022-12-18T04:03:48.816Z,36.83
2022-12-18T04:04:48.722Z,36.36
2022-12-18T04:05:48.851Z,36.08
2022-12-18T04:06:48.735Z,36.66
2022-12-18T04:07:48.734Z,36.65
2022-12-18T04:08:48.735Z,37.02
2022-12-18T04:09:48.742Z,36.66
2022-12-18T04:10:48.741Z,35.82
2022-12-18T04:11:48.751Z,35.23
2022-12-18T04:12:48.745Z,34.95
2022-12-18T04:13:48.751Z,35.89
2022-12-18T04:14:48.758Z,35.91
2022-12-18T04:15:48.818Z,35.89
2022-12-18T04:16:48.757Z,35.72
2022-12-18T04:17:48.766Z,36.18
2022-12-18T04:18:48.764Z,37.31
2022-12-18T04:19:48.774Z,37.69
2022-12-18T04:20:48.768Z,38.82
2022-12-18T04:21:48.892Z,39.20
2022-12-18T04:22:48.776Z,38.82
2022-12-18T04:23:48.783Z,38.26
2022-12-18T04:24:48.783Z,38.92
2022-12-18T04:25:48.790Z,39.11
2022-12-18T04:26:48.791Z,40.05
2022-12-18T04:27:48.794Z,39.01
2022-12-18T04:28:48.794Z,38.54
2022-12-18T04:29:48.802Z,37.88
2022-12-18T04:30:48.893Z,36.46
2022-12-18T04:31:48.805Z,35.89
2022-12-18T04:32:52.218Z,35.89
2022-12-18T04:33:48.810Z,35.99
2022-12-18T04:34:48.820Z,36.46
2022-12-18T04:35:48.814Z,36.65
2022-12-18T04:36:48.822Z,36.74
2022-12-18T04:37:48.932Z,36.46
2022-12-18T04:38:48.828Z,36.65
2022-12-18T04:39:48.834Z,36.55
2022-12-18T04:40:48.837Z,37.02
2022-12-18T04:41:48.835Z,37.50
2022-12-18T04:42:48.912Z,38.07
2022-12-18T04:43:48.849Z,37.69
2022-12-18T04:44:48.848Z,37.40
2022-12-18T04:45:48.849Z,37.21
2022-12-18T04:46:48.960Z,37.02
2022-12-18T04:47:48.849Z,37.12
2022-12-18T04:48:48.859Z,37.12
2022-12-18T04:49:48.859Z,37.02
2022-12-18T04:50:48.866Z,37.12
2022-12-18T04:51:48.865Z,36.47
2022-12-18T04:52:48.908Z,36.66
2022-12-18T04:53:48.983Z,36.10
2022-12-18T04:54:48.876Z,36.10
2022-12-18T04:55:48.875Z,36.47
2022-12-18T04:56:48.881Z,36.66
2022-12-18T04:57:48.884Z,36.85
2022-12-18T04:58:48.896Z,37.69
2022-12-18T04:59:48.887Z,37.88
2022-12-18T05:00:48.895Z,37.99
2022-12-18T05:01:48.990Z,38.35
2022-12-18T05:02:48.967Z,38.63
2022-12-18T05:03:48.964Z,37.69
2022-12-18T05:04:48.903Z,37.50
2022-12-18T05:05:48.907Z,36.46
2022-12-18T05:06:48.911Z,36.65
2022-12-18T05:07:48.911Z,37.59
2022-12-18T05:08:48.916Z,37.59
2022-12-18T05:09:49.031Z,38.16
2022-12-18T05:10:48.924Z,38.35
2022-12-18T05:11:48.930Z,38.92
2022-12-18T05:12:48.942Z,38.92
2022-12-18T05:13:48.934Z,38.44
2022-12-18T05:14:48.938Z,38.07
2022-12-18T05:15:48.981Z,37.69
2022-12-18T05:16:48.947Z,37.88
2022-12-18T05:17:48.941Z,38.73
2022-12-18T05:18:48.946Z,38.82
2022-12-18T05:19:48.944Z,38.82
2022-12-18T05:20:48.958Z,39.11
2022-12-18T05:21:48.963Z,39.11
2022-12-18T05:22:48.961Z,38.44
2022-12-18T05:23:48.957Z,37.88
2022-12-18T05:24:48.962Z,38.26
2022-12-18T05:25:49.078Z,38.82
2022-12-18T05:26:48.981Z,39.48
2022-12-18T05:27:48.974Z,39.67
2022-12-18T05:28:48.976Z,39.76
2022-12-18T05:29:48.977Z,39.86
2022-12-18T05:30:49.047Z,39.67
2022-12-18T05:31:49.048Z,39.86
2022-12-18T05:32:48.995Z,39.20
2022-12-18T05:33:48.987Z,38.82
2022-12-18T05:34:48.995Z,38.63
2022-12-18T05:35:48.993Z,39.20
2022-12-18T05:36:49.005Z,39.29
2022-12-18T05:37:49.000Z,39.20
2022-12-18T05:38:49.010Z,39.01
2022-12-18T05:39:49.010Z,38.73
2022-12-18T05:40:49.013Z,38.82
2022-12-18T05:41:49.144Z,38.82
2022-12-18T05:42:49.022Z,39.20
2022-12-18T05:43:49.018Z,39.11
2022-12-18T05:44:49.023Z,39.58
2022-12-18T05:45:49.027Z,39.58
2022-12-18T05:46:49.171Z,40.05
2022-12-18T05:47:49.064Z,40.05
2022-12-18T05:48:49.036Z,39.95
2022-12-18T05:49:49.036Z,40.24
2022-12-18T05:50:49.041Z,40.14
2022-12-18T05:51:49.041Z,40.42
2022-12-18T05:52:49.057Z,40.42
2022-12-18T05:53:49.048Z,40.14
2022-12-18T05:54:49.057Z,39.95
2022-12-18T05:55:49.055Z,40.24
2022-12-18T05:56:49.183Z,39.67
2022-12-18T05:57:49.172Z,39.48
2022-12-18T05:58:49.069Z,40.05
2022-12-18T05:59:49.064Z,39.58
2022-12-18T06:00:49.071Z,39.95
2022-12-18T06:01:49.152Z,40.61
2022-12-18T06:02:49.173Z,40.33
2022-12-18T06:03:49.133Z,40.52
2022-12-18T06:04:49.084Z,40.71
2022-12-18T06:05:49.088Z,40.24
2022-12-18T06:06:49.102Z,39.76
2022-12-18T06:07:49.091Z,38.82
2022-12-18T06:08:49.095Z,37.78
2022-12-18T06:09:49.097Z,38.73
2022-12-18T06:10:49.103Z,38.26
2022-12-18T06:11:49.098Z,38.54
2022-12-18T06:12:49.107Z,38.63
2022-12-18T06:13:51.562Z,39.20
2022-12-18T06:14:49.114Z,39.48
2022-12-18T06:15:49.163Z,38.92
2022-12-18T06:16:49.117Z,39.01
2022-12-18T06:17:49.118Z,39.11
2022-12-18T06:18:49.124Z,39.39
2022-12-18T06:19:49.123Z,39.48
2022-12-18T06:20:49.131Z,39.86
2022-12-18T06:21:49.132Z,40.33
2022-12-18T06:22:49.139Z,40.71
2022-12-18T06:23:49.136Z,40.52
2022-12-18T06:24:49.142Z,41.37
2022-12-18T06:25:49.142Z,41.37
2022-12-18T06:26:49.150Z,41.66
2022-12-18T06:27:49.147Z,41.94
2022-12-18T06:28:49.157Z,41.66
2022-12-18T06:29:49.268Z,41.75
2022-12-18T06:30:49.162Z,42.13
2022-12-18T06:31:49.244Z,42.03
2022-12-18T06:32:53.158Z,41.94
2022-12-18T06:33:49.170Z,42.50
2022-12-18T06:34:49.181Z,42.50
2022-12-18T06:35:49.169Z,42.03
2022-12-18T06:36:49.177Z,42.13
2022-12-18T06:37:49.178Z,41.94
2022-12-18T06:38:49.188Z,41.56
2022-12-18T06:39:49.183Z,40.42
2022-12-18T06:40:49.185Z,40.42
2022-12-18T06:41:49.195Z,40.05
2022-12-18T06:42:49.193Z,39.76
2022-12-18T06:43:49.192Z,38.73
2022-12-18T06:44:49.199Z,38.44
2022-12-18T06:45:49.387Z,38.26
2022-12-18T06:46:49.203Z,38.16
2022-12-18T06:47:49.204Z,37.59
2022-12-18T06:48:49.209Z,36.83
2022-12-18T06:49:49.212Z,36.55
2022-12-18T06:50:49.217Z,36.74
2022-12-18T06:51:49.212Z,35.99
2022-12-18T06:52:49.221Z,36.08
2022-12-18T06:53:49.220Z,35.52
2022-12-18T06:54:49.228Z,35.71
2022-12-18T06:55:49.280Z,36.08
2022-12-18T06:56:49.231Z,35.99
2022-12-18T06:57:49.234Z,35.71
2022-12-18T06:58:49.239Z,36.18
2022-12-18T06:59:49.247Z,35.80
2022-12-18T07:00:49.305Z,35.89
2022-12-18T07:01:49.624Z,36.18
2022-12-18T07:02:49.408Z,36.36
2022-12-18T07:03:49.247Z,37.12
2022-12-18T07:04:49.253Z,37.40
2022-12-18T07:05:49.257Z,37.78
2022-12-18T07:06:49.262Z,37.97
2022-12-18T07:07:49.259Z,37.78
2022-12-18T07:08:49.268Z,37.78
2022-12-18T07:09:49.278Z,37.69
2022-12-18T07:10:54.345Z,36.74
2022-12-18T07:11:49.276Z,35.99
2022-12-18T07:12:49.280Z,35.04
2022-12-18T07:13:49.278Z,34.66
2022-12-18T07:14:49.387Z,34.38
2022-12-18T07:15:49.284Z,34.28
2022-12-18T07:16:49.366Z,34.76
2022-12-18T07:17:49.403Z,35.80
2022-12-18T07:18:49.309Z,36.08
2022-12-18T07:19:49.353Z,36.65
2022-12-18T07:20:49.310Z,36.93
2022-12-18T07:21:49.304Z,37.59
2022-12-18T07:22:54.720Z,37.69
2022-12-18T07:23:49.593Z,37.69
2022-12-18T07:24:49.316Z,37.97
2022-12-18T07:25:49.318Z,38.44
2022-12-18T07:26:49.345Z,38.44
2022-12-18T07:27:49.326Z,38.07
2022-12-18T07:28:49.328Z,37.02
2022-12-18T07:29:49.331Z,37.02
2022-12-18T07:30:49.335Z,37.12
2022-12-18T07:31:49.404Z,35.89
2022-12-18T07:32:49.344Z,35.71
2022-12-18T07:33:49.455Z,35.42
2022-12-18T07:34:49.344Z,34.57
2022-12-18T07:35:49.344Z,35.04
2022-12-18T07:36:49.349Z,34.85
2022-12-18T07:37:49.353Z,35.23
2022-12-18T07:38:49.371Z,35.61
2022-12-18T07:39:49.360Z,35.23
2022-12-18T07:40:49.364Z,34.57
2022-12-18T07:41:49.363Z,34.28
2022-12-18T07:42:49.375Z,34.02
2022-12-18T07:43:49.369Z,34.28
2022-12-18T07:44:49.377Z,34.97
2022-12-18T07:45:49.425Z,35.80
2022-12-18T07:46:49.385Z,36.46
2022-12-18T07:47:49.481Z,36.74
2022-12-18T07:48:50.318Z,37.21
2022-12-18T07:49:49.505Z,37.12
2022-12-18T07:50:49.399Z,36.74
2022-12-18T07:51:49.406Z,36.08
2022-12-18T07:52:49.401Z,36.65
2022-12-18T07:53:52.307Z,37.02
2022-12-18T07:54:49.409Z,36.65
2022-12-18T07:56:25.015Z,36.65
2022-12-18T07:56:49.416Z,36.46
2022-12-18T07:57:51.254Z,36.55
2022-12-18T07:58:49.423Z,36.55
2022-12-18T07:59:49.422Z,36.55
2022-12-18T08:00:49.512Z,36.08
2022-12-18T08:01:49.567Z,35.23
2022-12-18T08:02:49.628Z,34.95
2022-12-18T08:03:50.317Z,35.61
2022-12-18T08:04:49.439Z,36.08
2022-12-18T08:05:55.425Z,36.19
2022-12-18T08:06:49.568Z,35.82
2022-12-18T08:07:49.452Z,35.25
2022-12-18T08:08:49.454Z,35.06
2022-12-18T08:09:49.476Z,34.30
2022-12-18T08:10:49.460Z,34.11
2022-12-18T08:11:49.460Z,33.54
2022-12-18T08:12:49.468Z,33.83
2022-12-18T08:13:49.540Z,34.11
2022-12-18T08:14:49.474Z,33.64
2022-12-18T08:15:49.493Z,33.36
2022-12-18T08:16:49.525Z,33.64
2022-12-18T08:17:49.479Z,33.73
2022-12-18T08:18:49.648Z,33.73
2022-12-18T08:19:49.487Z,34.11
2022-12-18T08:20:49.516Z,34.21
2022-12-18T08:21:49.490Z,34.02
2022-12-18T08:22:55.402Z,34.49
2022-12-18T08:23:50.160Z,34.40
2022-12-18T08:24:49.510Z,34.40
2022-12-18T08:25:49.519Z,34.02
2022-12-18T08:27:06.765Z,33.64
2022-12-18T08:27:49.510Z,33.64
2022-12-18T08:28:49.518Z,33.07
2022-12-18T08:29:49.518Z,32.70
2022-12-18T08:30:49.559Z,32.13
2022-12-18T08:31:49.605Z,32.32
2022-12-18T08:32:49.534Z,32.04
2022-12-18T08:33:49.531Z,31.94
2022-12-18T08:34:49.539Z,32.13
2022-12-18T08:35:49.542Z,32.04
2022-12-18T08:36:49.544Z,32.89
2022-12-18T08:37:49.546Z,33.17
2022-12-18T08:38:49.553Z,32.89
2022-12-18T08:39:49.666Z,33.00
2022-12-18T08:40:49.556Z,33.47
2022-12-18T08:41:49.560Z,33.56
2022-12-18T08:42:49.566Z,32.71
2022-12-18T08:43:49.571Z,32.05
2022-12-18T08:44:49.576Z,32.07
2022-12-18T08:45:49.673Z,33.49
2022-12-18T08:46:49.578Z,33.96
2022-12-18T08:47:49.584Z,33.79
2022-12-18T08:48:49.590Z,32.37
2022-12-18T08:49:49.595Z,31.99
2022-12-18T08:50:49.600Z,31.82
2022-12-18T08:51:49.602Z,32.57
2022-12-18T08:52:49.608Z,31.44
2022-12-18T08:53:49.633Z,31.63
2022-12-18T08:54:49.621Z,31.63
2022-12-18T08:55:50.516Z,31.06
2022-12-18T08:56:49.628Z,31.17
2022-12-18T08:57:49.638Z,31.36
2022-12-18T08:58:49.641Z,30.22
2022-12-18T08:59:49.651Z,29.67
2022-12-18T09:00:49.655Z,28.63
2022-12-18T09:01:49.870Z,28.81
2022-12-18T09:02:49.757Z,27.49
2022-12-18T09:03:49.673Z,28.81
2022-12-18T09:04:55.399Z,29.86
2022-12-18T09:05:49.691Z,30.99
2022-12-18T09:06:49.688Z,31.87
2022-12-18T09:07:49.700Z,31.10
2022-12-18T09:08:49.700Z,30.63
2022-12-18T09:09:49.712Z,30.27
2022-12-18T09:10:49.716Z,30.17
2022-12-18T09:11:49.839Z,28.66
2022-12-18T09:12:49.729Z,27.61
2022-12-18T09:13:49.737Z,27.80
2022-12-18T09:14:49.743Z,29.32
2022-12-18T09:15:49.749Z,30.17
2022-12-18T09:16:49.818Z,28.45
2022-12-18T09:17:49.766Z,27.69
2022-12-18T09:18:49.769Z,27.50
2022-12-18T09:19:49.779Z,27.59
2022-12-18T09:20:49.783Z,26.46
2022-12-18T09:21:49.799Z,25.79
2022-12-18T09:22:49.812Z,25.60
2022-12-18T09:23:49.811Z,26.65
2022-12-18T09:24:49.812Z,27.98
2022-12-18T09:25:49.854Z,28.07
2022-12-18T09:26:51.575Z,27.98
2022-12-18T09:27:49.950Z,28.36
2022-12-18T09:28:49.839Z,27.40
2022-12-18T09:29:49.849Z,28.45
2022-12-18T09:30:50.094Z,28.74
2022-12-18T09:31:49.865Z,29.87
2022-12-18T09:32:49.867Z,30.35
2022-12-18T09:33:49.878Z,30.08
2022-12-18T09:34:49.881Z,29.78
2022-12-18T09:35:49.898Z,28.55
2022-12-18T09:36:49.900Z,28.74
2022-12-18T09:37:49.905Z,28.83
2022-12-18T09:38:49.913Z,27.88
2022-12-18T09:39:49.921Z,27.78
2022-12-18T09:40:49.924Z,27.40
2022-12-18T09:41:49.944Z,29.30
2022-12-18T09:42:49.943Z,29.68
2022-12-18T09:43:50.074Z,29.79
2022-12-18T09:44:50.008Z,30.17
2022-12-18T09:45:50.043Z,30.55
2022-12-18T09:46:49.976Z,30.27
2022-12-18T09:47:49.985Z,30.25
2022-12-18T09:48:49.996Z,30.83
2022-12-18T09:49:49.996Z,32.17
2022-12-18T09:50:50.012Z,33.02
2022-12-18T09:51:50.008Z,34.25
2022-12-18T09:52:50.018Z,32.83
2022-12-18T09:53:50.059Z,33.69
2022-12-18T09:54:50.075Z,33.97
2022-12-18T09:55:50.041Z,33.04
2022-12-18T09:56:50.045Z,31.99
2022-12-18T09:57:50.056Z,31.52
2022-12-18T09:58:50.065Z,32.09
2022-12-18T09:59:56.005Z,32.56
2022-12-18T10:00:50.194Z,31.80
2022-12-18T10:01:50.222Z,32.09
2022-12-18T10:02:50.317Z,32.67
2022-12-18T10:03:50.105Z,32.01
2022-12-18T10:04:50.176Z,32.10
2022-12-18T10:05:50.122Z,33.26
2022-12-18T10:06:50.130Z,32.69
2022-12-18T10:07:50.144Z,31.05
2022-12-18T10:08:50.143Z,32.10
2022-12-18T10:09:50.155Z,33.62
2022-12-18T10:10:50.162Z,33.72
2022-12-18T10:11:50.179Z,31.44
2022-12-18T10:12:50.177Z,30.03
2022-12-18T10:13:50.192Z,31.26
2022-12-18T10:14:50.197Z,31.84
2022-12-18T10:15:50.230Z,30.60
2022-12-18T10:16:50.329Z,30.22
2022-12-18T10:17:50.227Z,30.31
2022-12-18T10:18:50.236Z,30.22
2022-12-18T10:19:50.371Z,31.18
2022-12-18T10:20:50.273Z,30.99
2022-12-18T10:21:50.261Z,30.03
2022-12-18T10:22:50.273Z,28.60
2022-12-18T10:23:50.300Z,27.64
2022-12-18T10:24:50.294Z,28.78
2022-12-18T10:25:50.304Z,28.88
2022-12-18T10:26:50.307Z,29.93
2022-12-18T10:27:50.322Z,29.95
2022-12-18T10:28:50.325Z,29.28
2022-12-18T10:29:50.361Z,27.86
2022-12-18T10:30:50.379Z,28.90
2022-12-18T10:31:50.358Z,29.57
2022-12-18T10:32:50.479Z,29.55
2022-12-18T10:33:50.379Z,30.90
2022-12-18T10:34:54.076Z,29.93
2022-12-18T10:35:50.399Z,29.84
2022-12-18T10:36:50.406Z,30.41
2022-12-18T10:37:50.422Z,31.95
2022-12-18T10:38:50.427Z,31.77
2022-12-18T10:39:50.439Z,30.34
2022-12-18T10:40:50.448Z,29.00
2022-12-18T10:41:50.464Z,28.60
2022-12-18T10:42:50.467Z,29.64
2022-12-18T10:43:50.482Z,29.92
2022-12-18T10:44:50.490Z,29.44
2022-12-18T10:45:50.522Z,30.31
2022-12-18T10:46:50.566Z,29.55
2022-12-18T10:47:50.527Z,28.13
2022-12-18T10:48:50.654Z,27.18
2022-12-18T10:49:50.543Z,28.05
2022-12-18T10:51:20.269Z,28.81
2022-12-18T10:51:50.564Z,28.90
2022-12-18T10:52:50.572Z,26.61
2022-12-18T10:53:50.587Z,26.72
2022-12-18T10:54:50.597Z,26.62
2022-12-18T10:55:50.607Z,27.86
2022-12-18T10:56:50.615Z,27.95
2022-12-18T10:57:50.631Z,28.52
2022-12-18T10:58:50.637Z,27.38
2022-12-18T10:59:50.651Z,26.61
2022-12-18T11:00:50.661Z,27.37
2022-12-18T11:01:50.755Z,26.69
2022-12-18T11:02:50.784Z,26.59
2022-12-18T11:03:50.762Z,28.03
2022-12-18T11:04:50.820Z,28.60
2022-12-18T11:05:50.719Z,27.84
2022-12-18T11:06:50.725Z,29.74
2022-12-18T11:07:50.746Z,29.09
2022-12-18T11:08:50.748Z,29.30
2022-12-18T11:09:50.763Z,27.87
2022-12-18T11:10:50.770Z,27.86
2022-12-18T11:11:50.784Z,29.57
2022-12-18T11:12:50.804Z,27.76
2022-12-18T11:13:50.805Z,27.65
2022-12-18T11:14:50.831Z,28.51
2022-12-18T11:15:50.902Z,28.71
2022-12-18T11:17:24.191Z,30.73
2022-12-18T11:17:50.852Z,31.10
2022-12-18T11:18:50.867Z,29.30
2022-12-18T11:19:50.873Z,29.39
2022-12-18T11:20:55.547Z,29.68
2022-12-18T11:21:50.902Z,28.62
2022-12-18T11:22:50.902Z,28.81
2022-12-18T11:23:50.918Z,28.62
2022-12-18T11:25:22.382Z,30.04
2022-12-18T11:25:50.939Z,29.66
2022-12-18T11:26:54.907Z,28.71
2022-12-18T11:27:50.964Z,30.90
2022-12-18T11:28:50.973Z,30.99
2022-12-18T11:29:50.986Z,31.85
2022-12-18T11:30:51.048Z,30.33
2022-12-18T11:31:51.069Z,29.66
2022-12-18T11:32:51.015Z,30.71
2022-12-18T11:34:19.846Z,30.04
2022-12-18T11:34:55.958Z,29.95
2022-12-18T11:35:51.054Z,30.80
2022-12-18T11:36:51.174Z,30.52
2022-12-18T11:37:51.079Z,28.90
2022-12-18T11:38:51.087Z,29.39
2022-12-18T11:39:51.127Z,28.71
2022-12-18T11:40:51.110Z,28.62
2022-12-18T11:41:51.124Z,30.15
2022-12-18T11:42:51.138Z,29.95
2022-12-18T11:43:51.147Z,29.75
2022-12-18T11:44:51.156Z,31.18
2022-12-18T11:45:51.173Z,30.90
2022-12-18T11:46:51.231Z,31.37
2022-12-18T11:47:51.197Z,30.04
2022-12-18T11:48:51.204Z,30.80
2022-12-18T11:49:51.221Z,30.31
2022-12-18T11:50:51.234Z,30.33
2022-12-18T11:51:51.243Z,29.95
2022-12-18T11:53:01.540Z,31.37
2022-12-18T11:53:51.383Z,32.23
2022-12-18T11:54:51.275Z,29.85
2022-12-18T11:55:51.395Z,27.57
2022-12-18T11:56:51.302Z,31.09
2022-12-18T11:57:51.320Z,31.37
2022-12-18T11:58:51.322Z,32.42
2022-12-18T11:59:51.340Z,33.18
2022-12-18T12:00:51.346Z,32.51
2022-12-18T12:01:51.527Z,33.75
2022-12-18T12:02:51.445Z,34.89
2022-12-18T12:03:51.447Z,36.13
2022-12-18T12:04:51.393Z,35.84
2022-12-18T12:05:51.410Z,36.32
2022-12-18T12:06:51.419Z,36.89
2022-12-18T12:07:51.430Z,36.51
2022-12-18T12:08:51.439Z,34.61
2022-12-18T12:09:51.576Z,33.84
2022-12-18T12:10:51.465Z,33.75
2022-12-18T12:11:51.487Z,33.75
2022-12-18T12:12:51.487Z,33.65
2022-12-18T12:13:51.502Z,32.90
2022-12-18T12:14:51.513Z,33.94
2022-12-18T12:15:51.565Z,32.32
2022-12-18T12:16:51.536Z,32.14
2022-12-18T12:17:51.566Z,33.96
2022-12-18T12:18:51.558Z,31.68
2022-12-18T12:19:51.575Z,31.01
2022-12-18T12:20:51.584Z,28.82
2022-12-18T12:21:51.598Z,27.68
2022-12-18T12:22:51.609Z,27.28
2022-12-18T12:23:51.627Z,26.73
2022-12-18T12:24:51.632Z,27.87
2022-12-18T12:25:51.765Z,27.31
2022-12-18T12:26:51.660Z,26.24
2022-12-18T12:27:51.669Z,25.95
2022-12-18T12:28:51.678Z,24.34
2022-12-18T12:29:51.695Z,24.81
2022-12-18T12:30:51.704Z,26.51
2022-12-18T12:31:51.766Z,26.81
2022-12-18T12:32:51.726Z,27.76
2022-12-18T12:33:51.744Z,29.75
2022-12-18T12:34:57.644Z,28.53
2022-12-18T12:35:51.768Z,25.70
2022-12-18T12:36:51.777Z,22.45
2022-12-18T12:37:51.793Z,22.35
2022-12-18T12:38:52.473Z,23.48
2022-12-18T12:39:51.818Z,26.62
2022-12-18T12:40:58.604Z,28.98
2022-12-18T12:41:51.957Z,30.79
2022-12-18T12:42:51.849Z,32.03
2022-12-18T12:43:52.288Z,32.23
2022-12-18T12:44:56.403Z,31.20
2022-12-18T12:45:51.964Z,30.63
2022-12-18T12:46:51.895Z,30.06
2022-12-18T12:47:51.912Z,29.58
2022-12-18T12:48:51.921Z,29.47
2022-12-18T12:49:51.968Z,29.19
2022-12-18T12:50:51.951Z,30.80
2022-12-18T12:51:51.957Z,30.04
2022-12-18T12:52:51.966Z,29.27